Time,TemperatureF,DewpointF,PressureIn,WindDirection,WindDirectionDegrees,WindSpeedMPH,WindSpeedGustMPH,Humidity,HourlyPrecipIn,Conditions,Clouds,dailyrainin,SoftwareType,DateUTC
2013-07-19 00:01:00,73.8,70.6,30.03,WNW,293,0.0,0.0,90,0.00,,,0.00,WSDL version 420,2013-07-19 04:01:00,
2013-07-19 00:06:00,73.8,70.6,30.03,WNW,293,0.0,0.0,90,0.00,,,0.00,WSDL version 420,2013-07-19 04:06:00,
2013-07-19 00:11:00,73.8,70.6,30.03,WNW,293,0.0,0.0,90,0.00,,,0.00,WSDL version 420,2013-07-19 04:11:00,
2013-07-19 00:16:00,73.6,70.5,30.03,North,356,0.0,0.0,90,0.00,,,0.00,WSDL version 420,2013-07-19 04:16:00,
2013-07-19 00:21:00,73.6,70.5,30.03,NE,45,0.0,0.0,90,0.00,,,0.00,WSDL version 420,2013-07-19 04:21:00,
2013-07-19 00:26:00,73.6,70.5,30.03,NE,45,0.0,0.0,90,0.00,,,0.00,WSDL version 420,2013-07-19 04:26:00,
2013-07-19 00:31:00,73.6,70.5,30.03,NE,56,0.0,0.0,90,0.00,,,0.00,WSDL version 420,2013-07-19 04:31:00,
2013-07-19 00:36:00,73.6,70.5,30.03,ENE,68,0.0,0.0,90,0.00,,,0.00,WSDL version 420,2013-07-19 04:36:00,
2013-07-19 00:41:00,73.6,70.5,30.03,ENE,68,0.0,0.0,90,0.00,,,0.00,WSDL version 420,2013-07-19 04:41:00,
2013-07-19 00:46:00,73.6,70.5,30.03,ENE,68,0.0,0.0,90,0.00,,,0.00,WSDL version 420,2013-07-19 04:46:00,
2013-07-19 00:51:00,73.5,70.3,30.03,ENE,68,0.0,0.0,90,0.00,,,0.00,WSDL version 420,2013-07-19 04:51:00,
2013-07-19 00:56:00,73.4,70.3,30.03,ENE,68,0.0,0.0,90,0.00,,,0.00,WSDL version 420,2013-07-19 04:56:00,
2013-07-19 01:01:00,73.4,70.3,30.03,ENE,68,0.0,0.0,90,0.00,,,0.00,WSDL version 420,2013-07-19 05:01:00,
2013-07-19 01:06:00,73.4,70.6,30.03,ENE,68,0.0,0.0,91,0.00,,,0.00,WSDL version 420,2013-07-19 05:06:00,
2013-07-19 01:11:00,73.4,70.6,30.03,ENE,68,0.0,0.0,91,0.00,,,0.00,WSDL version 420,2013-07-19 05:11:00,
2013-07-19 01:16:00,73.4,70.6,30.00,ENE,68,0.0,0.0,91,0.00,,,0.00,WSDL version 420,2013-07-19 05:16:00,
2013-07-19 01:21:00,73.4,70.7,30.00,ENE,68,0.0,0.0,91,0.00,,,0.00,WSDL version 420,2013-07-19 05:21:00,
2013-07-19 01:26:00,73.6,70.8,30.00,ENE,68,0.0,0.0,91,0.00,,,0.00,WSDL version 420,2013-07-19 05:26:00,
2013-07-19 01:31:00,73.6,70.8,30.06,ENE,68,0.0,0.0,91,0.00,,,0.00,WSDL version 420,2013-07-19 05:31:00,
2013-07-19 01:36:00,73.6,70.8,30.06,ENE,68,0.0,0.0,91,0.00,,,0.00,WSDL version 420,2013-07-19 05:36:00,
2013-07-19 01:41:00,73.6,70.8,30.06,ENE,68,0.0,0.0,91,0.00,,,0.00,WSDL version 420,2013-07-19 05:41:00,
2013-07-19 01:46:00,73.6,70.8,30.03,ENE,68,0.0,0.0,91,0.00,,,0.00,WSDL version 420,2013-07-19 05:46:00,
2013-07-19 01:51:00,73.6,70.8,30.03,ENE,68,0.0,0.0,91,0.00,,,0.00,WSDL version 420,2013-07-19 05:51:00,
2013-07-19 01:56:00,73.6,70.8,30.03,ENE,68,0.0,0.0,91,0.00,,,0.00,WSDL version 420,2013-07-19 05:56:00,
2013-07-19 02:01:00,73.6,70.9,30.06,ENE,68,0.0,0.0,91,0.00,,,0.00,WSDL version 420,2013-07-19 06:01:00,
2013-07-19 02:06:00,73.6,70.8,30.06,NNW,338,0.0,0.0,91,0.00,,,0.00,WSDL version 420,2013-07-19 06:06:00,
2013-07-19 02:11:00,73.6,70.8,30.06,North,353,0.0,0.0,91,0.00,,,0.00,WSDL version 420,2013-07-19 06:11:00,
2013-07-19 02:16:00,73.7,70.9,30.00,NW,315,0.0,0.0,91,0.00,,,0.00,WSDL version 420,2013-07-19 06:16:00,
2013-07-19 02:21:00,73.8,71.0,30.00,North,360,0.0,0.0,91,0.00,,,0.00,WSDL version 420,2013-07-19 06:21:00,
2013-07-19 02:26:00,73.8,71.0,30.00,North,360,0.0,0.0,91,0.00,,,0.00,WSDL version 420,2013-07-19 06:26:00,
2013-07-19 02:31:00,73.8,71.0,30.03,North,360,0.0,0.0,91,0.00,,,0.00,WSDL version 420,2013-07-19 06:31:00,
2013-07-19 02:36:00,73.8,71.0,30.03,North,360,0.0,0.0,91,0.00,,,0.00,WSDL version 420,2013-07-19 06:36:00,
2013-07-19 02:41:00,73.8,71.0,30.03,NNW,347,0.0,0.0,91,0.00,,,0.00,WSDL version 420,2013-07-19 06:41:00,
2013-07-19 02:46:00,73.8,71.0,30.03,North,360,0.0,0.0,91,0.00,,,0.00,WSDL version 420,2013-07-19 06:46:00,
2013-07-19 02:51:00,73.8,71.3,30.03,North,360,0.0,0.0,92,0.00,,,0.00,WSDL version 420,2013-07-19 06:51:00,
2013-07-19 02:56:00,73.8,71.4,30.03,North,360,0.0,0.0,92,0.00,,,0.00,WSDL version 420,2013-07-19 06:56:00,
2013-07-19 03:01:00,73.8,71.4,30.03,North,360,0.0,0.0,92,0.00,,,0.00,WSDL version 420,2013-07-19 07:01:00,
2013-07-19 03:06:00,73.8,71.4,30.03,North,360,0.0,0.0,92,0.00,,,0.00,WSDL version 420,2013-07-19 07:06:00,
2013-07-19 03:11:00,73.8,71.4,30.03,North,360,0.0,0.0,92,0.00,,,0.00,WSDL version 420,2013-07-19 07:11:00,
2013-07-19 03:16:00,73.8,71.4,30.03,North,360,0.0,0.0,92,0.00,,,0.00,WSDL version 420,2013-07-19 07:16:00,
2013-07-19 03:21:00,73.8,71.4,30.03,NW,326,0.0,0.0,92,0.00,,,0.00,WSDL version 420,2013-07-19 07:21:00,
2013-07-19 03:26:00,73.9,71.5,30.03,North,360,0.0,0.0,92,0.00,,,0.00,WSDL version 420,2013-07-19 07:26:00,
2013-07-19 03:31:00,73.9,71.5,30.03,North,360,0.0,0.0,92,0.00,,,0.00,WSDL version 420,2013-07-19 07:31:00,
2013-07-19 03:36:00,73.8,71.4,30.03,North,360,0.0,0.0,92,0.00,,,0.00,WSDL version 420,2013-07-19 07:36:00,
2013-07-19 03:41:00,73.9,71.5,30.03,North,360,0.0,0.0,92,0.00,,,0.00,WSDL version 420,2013-07-19 07:41:00,
2013-07-19 03:46:00,73.9,71.5,30.03,North,360,0.0,0.0,92,0.00,,,0.00,WSDL version 420,2013-07-19 07:46:00,
2013-07-19 03:51:00,73.9,71.5,30.03,North,360,0.0,0.0,92,0.00,,,0.00,WSDL version 420,2013-07-19 07:51:00,
2013-07-19 03:56:00,73.9,71.5,30.03,North,360,0.0,0.0,92,0.00,,,0.00,WSDL version 420,2013-07-19 07:56:00,
2013-07-19 04:01:00,73.9,71.5,30.03,North,360,0.0,0.0,92,0.00,,,0.00,WSDL version 420,2013-07-19 08:01:00,
2013-07-19 04:06:00,73.9,71.5,30.03,North,360,0.0,0.0,92,0.00,,,0.00,WSDL version 420,2013-07-19 08:06:00,
2013-07-19 04:11:00,73.9,71.5,30.03,North,360,0.0,0.0,92,0.00,,,0.00,WSDL version 420,2013-07-19 08:11:00,
2013-07-19 04:16:00,73.9,71.5,30.00,North,360,0.0,0.0,92,0.00,,,0.00,WSDL version 420,2013-07-19 08:16:00,
2013-07-19 04:21:00,73.9,71.5,30.00,North,360,0.0,0.0,92,0.00,,,0.00,WSDL version 420,2013-07-19 08:21:00,
2013-07-19 04:26:00,73.9,71.5,30.00,North,360,0.0,0.0,92,0.00,,,0.00,WSDL version 420,2013-07-19 08:26:00,
2013-07-19 04:31:00,73.9,71.5,30.00,North,360,0.0,0.0,92,0.00,,,0.00,WSDL version 420,2013-07-19 08:31:00,
2013-07-19 04:36:00,73.9,71.5,30.00,North,360,0.0,0.0,92,0.00,,,0.00,WSDL version 420,2013-07-19 08:36:00,
2013-07-19 04:41:00,73.8,71.4,30.00,North,360,0.0,0.0,92,0.00,,,0.00,WSDL version 420,2013-07-19 08:41:00,
2013-07-19 04:46:00,73.8,71.4,30.00,North,360,0.0,0.0,92,0.00,,,0.00,WSDL version 420,2013-07-19 08:46:00,
2013-07-19 04:51:00,73.8,71.4,30.00,North,360,0.0,0.0,92,0.00,,,0.00,WSDL version 420,2013-07-19 08:51:00,
2013-07-19 04:56:00,73.8,71.4,30.00,North,360,0.0,0.0,92,0.00,,,0.00,WSDL version 420,2013-07-19 08:56:00,
2013-07-19 05:01:00,73.8,71.4,30.03,North,360,0.0,0.0,92,0.00,,,0.00,WSDL version 420,2013-07-19 09:01:00,
2013-07-19 05:06:00,73.8,71.4,30.03,North,360,0.0,0.0,92,0.00,,,0.00,WSDL version 420,2013-07-19 09:06:00,
2013-07-19 05:11:00,73.8,71.4,30.03,North,360,0.0,0.0,92,0.00,,,0.00,WSDL version 420,2013-07-19 09:11:00,
2013-07-19 05:16:00,73.8,71.4,30.03,North,360,0.0,0.0,92,0.00,,,0.00,WSDL version 420,2013-07-19 09:16:00,
2013-07-19 05:21:00,73.6,71.2,30.03,North,360,0.0,0.0,92,0.00,,,0.00,WSDL version 420,2013-07-19 09:21:00,
2013-07-19 05:26:00,73.6,71.2,30.03,North,360,0.0,0.0,92,0.00,,,0.00,WSDL version 420,2013-07-19 09:26:00,
2013-07-19 05:31:00,73.6,71.2,30.00,North,360,0.0,0.0,92,0.00,,,0.00,WSDL version 420,2013-07-19 09:31:00,
2013-07-19 05:36:00,73.6,71.2,30.00,North,360,0.0,0.0,92,0.00,,,0.00,WSDL version 420,2013-07-19 09:36:00,
2013-07-19 05:41:00,73.6,71.3,30.00,North,360,0.0,0.0,93,0.00,,,0.00,WSDL version 420,2013-07-19 09:41:00,
2013-07-19 05:46:00,73.6,71.5,30.00,North,360,0.0,0.0,93,0.00,,,0.00,WSDL version 420,2013-07-19 09:46:00,
2013-07-19 05:51:00,73.6,71.5,30.00,North,360,0.0,0.0,93,0.00,,,0.00,WSDL version 420,2013-07-19 09:51:00,
2013-07-19 05:56:00,73.5,71.2,30.00,North,360,0.0,0.0,92,0.00,,,0.00,WSDL version 420,2013-07-19 09:56:00,
2013-07-19 06:01:00,73.4,71.0,30.00,North,360,0.0,0.0,92,0.00,,,0.00,WSDL version 420,2013-07-19 10:01:00,
2013-07-19 06:06:00,73.4,71.4,30.00,North,360,0.0,0.0,93,0.00,,,0.00,WSDL version 420,2013-07-19 10:06:00,
2013-07-19 06:11:00,73.5,71.4,30.00,North,360,0.0,0.0,93,0.00,,,0.00,WSDL version 420,2013-07-19 10:11:00,
2013-07-19 06:16:00,73.5,71.4,30.03,North,360,0.0,0.0,93,0.00,,,0.00,WSDL version 420,2013-07-19 10:16:00,
2013-07-19 06:21:00,73.6,71.5,30.03,North,360,0.0,0.0,93,0.00,,,0.00,WSDL version 420,2013-07-19 10:21:00,
2013-07-19 06:26:00,73.6,71.5,30.03,North,360,0.0,0.0,93,0.00,,,0.00,WSDL version 420,2013-07-19 10:26:00,
2013-07-19 06:31:00,73.6,71.5,30.03,North,360,0.0,0.0,93,0.00,,,0.00,WSDL version 420,2013-07-19 10:31:00,
2013-07-19 06:36:00,73.6,71.5,30.03,North,360,0.0,0.0,93,0.00,,,0.00,WSDL version 420,2013-07-19 10:36:00,
2013-07-19 06:41:00,73.7,71.7,30.03,North,360,0.0,0.0,93,0.00,,,0.00,WSDL version 420,2013-07-19 10:41:00,
2013-07-19 06:46:00,73.8,71.7,30.03,North,360,0.0,0.0,93,0.00,,,0.00,WSDL version 420,2013-07-19 10:46:00,
2013-07-19 06:51:00,73.8,71.7,30.03,North,360,0.0,0.0,93,0.00,,,0.00,WSDL version 420,2013-07-19 10:51:00,
2013-07-19 06:56:00,73.8,71.7,30.03,North,360,0.0,0.0,93,0.00,,,0.00,WSDL version 420,2013-07-19 10:56:00,
2013-07-19 07:01:00,73.8,71.7,30.03,North,360,0.0,0.0,93,0.00,,,0.00,WSDL version 420,2013-07-19 11:01:00,
2013-07-19 07:06:00,73.9,71.9,30.03,North,360,0.0,0.0,93,0.00,,,0.00,WSDL version 420,2013-07-19 11:06:00,
2013-07-19 07:11:00,73.9,71.9,30.03,North,360,0.0,0.0,93,0.00,,,0.00,WSDL version 420,2013-07-19 11:11:00,
2013-07-19 07:16:00,74.1,72.1,30.03,North,360,0.0,0.0,93,0.00,,,0.00,WSDL version 420,2013-07-19 11:16:00,
2013-07-19 07:21:00,74.4,72.6,30.03,North,360,0.0,0.0,94,0.00,,,0.00,WSDL version 420,2013-07-19 11:21:00,
2013-07-19 07:26:00,74.6,72.9,30.03,North,360,0.0,0.0,94,0.00,,,0.00,WSDL version 420,2013-07-19 11:26:00,
2013-07-19 07:31:00,74.7,73.0,30.06,North,360,0.0,0.0,94,0.00,,,0.00,WSDL version 420,2013-07-19 11:31:00,
2013-07-19 07:36:00,75.1,73.3,30.06,North,360,0.0,0.0,93,0.00,,,0.00,WSDL version 420,2013-07-19 11:36:00,
2013-07-19 07:41:00,75.4,73.3,30.06,North,360,0.0,0.0,93,0.00,,,0.00,WSDL version 420,2013-07-19 11:41:00,
2013-07-19 07:46:00,75.7,73.7,30.03,NE,48,0.0,0.0,93,0.00,,,0.00,WSDL version 420,2013-07-19 11:46:00,
2013-07-19 07:51:00,76.2,74.1,30.03,NE,45,0.0,0.0,93,0.00,,,0.00,WSDL version 420,2013-07-19 11:51:00,
2013-07-19 07:56:00,76.6,74.5,30.03,NE,45,0.0,0.0,93,0.00,,,0.00,WSDL version 420,2013-07-19 11:56:00,
2013-07-19 08:01:00,77.1,75.0,30.03,NE,42,0.0,1.6,93,0.00,,,0.00,WSDL version 420,2013-07-19 12:01:00,
2013-07-19 08:06:00,77.8,75.6,30.03,NE,53,0.1,1.6,93,0.00,,,0.00,WSDL version 420,2013-07-19 12:06:00,
2013-07-19 08:11:00,78.6,76.2,30.03,NNE,32,0.9,2.7,92,0.00,,,0.00,WSDL version 420,2013-07-19 12:11:00,
2013-07-19 08:16:00,79.5,77.1,30.00,ENE,60,1.7,3.1,92,0.00,,,0.00,WSDL version 420,2013-07-19 12:16:00,
2013-07-19 08:21:00,80.5,77.3,30.00,NNW,344,0.3,3.1,89,0.00,,,0.00,WSDL version 420,2013-07-19 12:21:00,
2013-07-19 08:26:00,80.6,76.5,30.00,NE,45,0.4,2.7,86,0.00,,,0.00,WSDL version 420,2013-07-19 12:26:00,
2013-07-19 08:31:00,80.5,75.2,30.03,NE,49,1.3,3.8,83,0.00,,,0.00,WSDL version 420,2013-07-19 12:31:00,
2013-07-19 08:36:00,80.6,74.7,30.03,ENE,76,0.1,3.8,82,0.00,,,0.00,WSDL version 420,2013-07-19 12:36:00,
2013-07-19 08:41:00,80.6,74.7,30.03,NE,55,0.0,2.5,82,0.00,,,0.00,WSDL version 420,2013-07-19 12:41:00,
2013-07-19 08:46:00,80.7,74.4,30.03,East,93,0.2,2.5,81,0.00,,,0.00,WSDL version 420,2013-07-19 12:46:00,
2013-07-19 08:51:00,80.8,74.5,30.03,ENE,77,0.7,2.2,81,0.00,,,0.00,WSDL version 420,2013-07-19 12:51:00,
2013-07-19 08:56:00,81.1,74.7,30.03,NE,53,0.4,2.5,81,0.00,,,0.00,WSDL version 420,2013-07-19 12:56:00,
2013-07-19 09:01:00,81.3,75.0,30.03,ENE,64,1.2,2.7,81,0.00,,,0.00,WSDL version 420,2013-07-19 13:01:00,
2013-07-19 09:06:00,81.8,75.5,30.03,ESE,113,0.0,2.7,81,0.00,,,0.00,WSDL version 420,2013-07-19 13:06:00,
2013-07-19 09:11:00,82.3,76.0,30.03,ENE,77,0.0,0.0,81,0.00,,,0.00,WSDL version 420,2013-07-19 13:11:00,
2013-07-19 09:16:00,82.7,76.1,30.03,ENE,65,0.0,1.3,79,0.00,,,0.00,WSDL version 420,2013-07-19 13:16:00,
2013-07-19 09:21:00,83.0,75.8,30.03,NE,51,0.8,2.9,79,0.00,,,0.00,WSDL version 420,2013-07-19 13:21:00,
2013-07-19 09:26:00,83.3,75.7,30.03,NE,53,0.0,2.9,78,0.00,,,0.00,WSDL version 420,2013-07-19 13:26:00,
2013-07-19 09:31:00,83.4,75.6,30.03,East,101,0.5,3.6,77,0.00,,,0.00,WSDL version 420,2013-07-19 13:31:00,
2013-07-19 09:36:00,83.7,75.4,30.03,ENE,70,1.1,3.6,76,0.00,,,0.00,WSDL version 420,2013-07-19 13:36:00,
2013-07-19 09:41:00,84.0,75.6,30.03,NE,51,0.0,2.7,76,0.00,,,0.00,WSDL version 420,2013-07-19 13:41:00,
2013-07-19 09:46:00,84.3,75.9,30.03,East,86,0.2,2.9,76,0.00,,,0.00,WSDL version 420,2013-07-19 13:46:00,
2013-07-19 09:51:00,84.4,75.7,30.03,East,93,0.3,2.9,75,0.00,,,0.00,WSDL version 420,2013-07-19 13:51:00,
2013-07-19 09:56:00,84.4,75.1,30.03,East,87,0.2,4.9,73,0.00,,,0.00,WSDL version 420,2013-07-19 13:56:00,
2013-07-19 10:01:00,84.5,74.9,30.03,NE,50,0.2,4.9,73,0.00,,,0.00,WSDL version 420,2013-07-19 14:01:00,
2013-07-19 10:06:00,84.5,74.1,30.03,ESE,116,2.8,4.3,70,0.00,,,0.00,WSDL version 420,2013-07-19 14:06:00,
2013-07-19 10:11:00,84.6,73.8,30.03,ESE,122,0.8,4.3,70,0.00,,,0.00,WSDL version 420,2013-07-19 14:11:00,
2013-07-19 10:16:00,84.6,73.4,30.03,ENE,62,1.6,3.4,69,0.00,,,0.00,WSDL version 420,2013-07-19 14:16:00,
2013-07-19 10:21:00,84.6,73.6,30.03,SE,124,1.2,2.9,70,0.00,,,0.00,WSDL version 420,2013-07-19 14:21:00,
2013-07-19 10:26:00,84.8,73.9,30.03,East,100,0.8,2.9,70,0.00,,,0.00,WSDL version 420,2013-07-19 14:26:00,
2013-07-19 10:31:00,84.7,73.0,30.03,SSE,152,1.6,5.4,68,0.00,,,0.00,WSDL version 420,2013-07-19 14:31:00,
2013-07-19 10:36:00,84.7,72.8,30.03,ESE,113,2.3,5.4,67,0.00,,,0.00,WSDL version 420,2013-07-19 14:36:00,
2013-07-19 10:41:00,84.9,73.2,30.03,SSE,154,1.8,5.6,68,0.00,,,0.00,WSDL version 420,2013-07-19 14:41:00,
2013-07-19 10:46:00,85.0,72.8,30.03,NNE,32,0.9,5.6,67,0.00,,,0.00,WSDL version 420,2013-07-19 14:46:00,
2013-07-19 10:56:00,85.1,72.9,30.03,SE,138,0.4,5.8,67,0.00,,,0.00,WSDL version 420,2013-07-19 14:56:00,
2013-07-19 11:01:00,85.2,72.8,30.06,East,99,1.8,5.8,66,0.00,,,0.00,WSDL version 420,2013-07-19 15:01:00,
2013-07-19 11:06:00,85.3,72.6,30.06,SE,124,1.0,3.8,66,0.00,,,0.00,WSDL version 420,2013-07-19 15:06:00,
2013-07-19 11:11:00,85.2,72.7,30.06,East,86,1.7,3.8,66,0.00,,,0.00,WSDL version 420,2013-07-19 15:11:00,
2013-07-19 11:16:00,85.1,72.4,30.06,East,87,2.2,3.4,65,0.00,,,0.00,WSDL version 420,2013-07-19 15:16:00,
2013-07-19 11:21:00,85.1,72.5,30.06,SSE,154,1.4,5.6,66,0.00,,,0.00,WSDL version 420,2013-07-19 15:21:00,
2013-07-19 11:26:00,85.1,72.5,30.06,East,80,1.3,5.6,66,0.00,,,0.00,WSDL version 420,2013-07-19 15:26:00,
2013-07-19 11:31:00,84.9,71.8,30.03,East,87,2.0,4.3,65,0.00,,,0.00,WSDL version 420,2013-07-19 15:31:00,
2013-07-19 11:36:00,85.0,72.0,30.03,WSW,244,0.4,3.8,66,0.00,,,0.00,WSDL version 420,2013-07-19 15:36:00,
2013-07-19 11:41:00,85.2,72.3,30.03,ESE,113,0.3,2.9,65,0.00,,,0.00,WSDL version 420,2013-07-19 15:41:00,
2013-07-19 11:46:00,85.3,72.4,30.06,East,79,0.7,2.5,66,0.00,,,0.00,WSDL version 420,2013-07-19 15:46:00,
2013-07-19 11:51:00,85.5,72.9,30.06,ESE,103,0.0,2.5,66,0.00,,,0.00,WSDL version 420,2013-07-19 15:51:00,
2013-07-19 11:56:00,85.6,73.0,30.06,ESE,122,0.8,2.7,66,0.00,,,0.00,WSDL version 420,2013-07-19 15:56:00,
2013-07-19 12:01:00,85.8,73.1,30.03,SE,129,0.3,2.7,66,0.00,,,0.00,WSDL version 420,2013-07-19 16:01:00,
2013-07-19 12:06:00,86.2,73.9,30.03,ENE,75,0.4,3.1,67,0.00,,,0.00,WSDL version 420,2013-07-19 16:06:00,
2013-07-19 12:11:00,86.5,73.9,30.03,NW,309,2.6,4.3,65,0.00,,,0.00,WSDL version 420,2013-07-19 16:11:00,
2013-07-19 12:16:00,86.7,73.4,30.03,ENE,75,1.9,4.9,64,0.00,,,0.00,WSDL version 420,2013-07-19 16:16:00,
2013-07-19 12:21:00,87.0,73.6,30.03,NE,34,1.8,5.4,65,0.00,,,0.00,WSDL version 420,2013-07-19 16:21:00,
2013-07-19 12:26:00,87.1,73.4,30.03,ESE,122,2.6,5.4,64,0.00,,,0.00,WSDL version 420,2013-07-19 16:26:00,
2013-07-19 12:31:00,87.6,74.1,30.03,NW,307,1.5,3.8,64,0.00,,,0.00,WSDL version 420,2013-07-19 16:31:00,
2013-07-19 12:36:00,88.0,74.1,30.03,NNE,26,2.1,6.5,63,0.00,,,0.00,WSDL version 420,2013-07-19 16:36:00,
2013-07-19 12:41:00,87.9,73.6,30.03,ESE,118,1.2,6.5,63,0.00,,,0.00,WSDL version 420,2013-07-19 16:41:00,
2013-07-19 12:46:00,87.8,73.2,30.00,SE,129,1.9,4.3,62,0.00,,,0.00,WSDL version 420,2013-07-19 16:46:00,
2013-07-19 12:51:00,88.3,73.3,30.00,SSW,194,2.4,4.3,61,0.00,,,0.00,WSDL version 420,2013-07-19 16:51:00,
2013-07-19 12:56:00,88.8,74.0,30.00,SSW,193,2.5,4.0,62,0.00,,,0.00,WSDL version 420,2013-07-19 16:56:00,
2013-07-19 13:01:00,89.6,74.7,30.03,SE,125,1.6,4.0,60,0.00,,,0.00,WSDL version 420,2013-07-19 17:01:00,
2013-07-19 13:06:00,89.8,73.9,30.03,NNE,26,2.7,4.3,59,0.00,,,0.00,WSDL version 420,2013-07-19 17:06:00,
2013-07-19 13:11:00,89.6,72.9,30.03,SW,233,2.0,4.3,58,0.00,,,0.00,WSDL version 420,2013-07-19 17:11:00,
2013-07-19 13:16:00,89.7,72.8,30.03,ESE,122,1.8,4.0,58,0.00,,,0.00,WSDL version 420,2013-07-19 17:16:00,
2013-07-19 13:21:00,90.1,73.5,30.03,SE,131,2.5,4.5,58,0.00,,,0.00,WSDL version 420,2013-07-19 17:21:00,
2013-07-19 13:26:00,90.7,73.6,30.03,WSW,248,2.6,4.5,57,0.00,,,0.00,WSDL version 420,2013-07-19 17:26:00,
2013-07-19 13:31:00,90.6,72.1,30.03,SW,236,3.0,7.2,55,0.00,,,0.00,WSDL version 420,2013-07-19 17:31:00,
2013-07-19 13:36:00,90.5,71.8,30.03,East,101,2.1,7.4,55,0.00,,,0.00,WSDL version 420,2013-07-19 17:36:00,
2013-07-19 13:41:00,90.8,72.8,30.03,East,86,2.3,7.4,56,0.00,,,0.00,WSDL version 420,2013-07-19 17:41:00,
2013-07-19 13:46:00,90.9,73.2,30.03,North,5,1.2,5.4,56,0.00,,,0.00,WSDL version 420,2013-07-19 17:46:00,
2013-07-19 13:51:00,90.3,71.6,30.03,SE,125,4.2,7.4,54,0.00,,,0.00,WSDL version 420,2013-07-19 17:51:00,
2013-07-19 13:56:00,90.1,71.0,30.03,WSW,244,2.5,7.4,53,0.00,,,0.00,WSDL version 420,2013-07-19 17:56:00,
2013-07-19 14:01:00,90.3,71.2,30.03,ESE,116,2.8,5.6,54,0.00,,,0.00,WSDL version 420,2013-07-19 18:01:00,
2013-07-19 14:06:00,90.3,71.0,30.03,SE,145,2.4,5.6,54,0.00,,,0.00,WSDL version 420,2013-07-19 18:06:00,
2013-07-19 14:11:00,90.3,71.2,30.03,ENE,68,2.5,5.6,54,0.00,,,0.00,WSDL version 420,2013-07-19 18:11:00,
2013-07-19 14:16:00,90.0,70.8,30.00,ESE,115,2.9,5.4,53,0.00,,,0.00,WSDL version 420,2013-07-19 18:16:00,
2013-07-19 14:21:00,89.9,69.8,30.00,South,170,1.9,4.9,52,0.00,,,0.00,WSDL version 420,2013-07-19 18:21:00,
2013-07-19 14:26:00,89.8,70.1,30.00,ENE,64,2.3,4.9,53,0.00,,,0.00,WSDL version 420,2013-07-19 18:26:00,
2013-07-19 14:31:00,90.0,70.7,30.00,SSE,150,2.5,4.3,54,0.00,,,0.00,WSDL version 420,2013-07-19 18:31:00,
2013-07-19 14:36:00,90.1,71.4,30.00,East,93,2.5,5.6,54,0.00,,,0.00,WSDL version 420,2013-07-19 18:36:00,
2013-07-19 14:41:00,90.4,72.1,30.00,NE,42,1.9,5.6,56,0.00,,,0.00,WSDL version 420,2013-07-19 18:41:00,
2013-07-19 14:46:00,91.4,74.0,30.00,SSE,152,2.7,5.6,57,0.00,,,0.00,WSDL version 420,2013-07-19 18:46:00,
2013-07-19 14:51:00,91.2,72.9,30.00,East,84,2.3,5.6,55,0.00,,,0.00,WSDL version 420,2013-07-19 18:51:00,
2013-07-19 14:56:00,90.7,71.7,30.00,East,99,3.3,8.1,53,0.00,,,0.00,WSDL version 420,2013-07-19 18:56:00,
2013-07-19 15:01:00,89.8,69.7,29.97,WSW,239,2.3,8.1,52,0.00,,,0.00,WSDL version 420,2013-07-19 19:01:00,
2013-07-19 15:06:00,90.1,70.5,29.97,ESE,122,2.6,4.7,52,0.00,,,0.00,WSDL version 420,2013-07-19 19:06:00,
2013-07-19 15:11:00,90.1,69.9,29.97,ESE,115,3.8,8.5,51,0.00,,,0.00,WSDL version 420,2013-07-19 19:11:00,
2013-07-19 15:16:00,90.9,71.1,30.00,SSE,161,1.6,8.5,52,0.00,,,0.00,WSDL version 420,2013-07-19 19:16:00,
2013-07-19 15:21:00,91.4,69.8,30.00,ESE,106,2.7,6.3,49,0.00,,,0.00,WSDL version 420,2013-07-19 19:21:00,
2013-07-19 15:26:00,92.3,70.6,30.00,ENE,74,2.0,6.3,50,0.00,,,0.00,WSDL version 420,2013-07-19 19:26:00,
2013-07-19 15:31:00,92.7,70.7,29.97,ENE,75,2.7,5.8,48,0.00,,,0.00,WSDL version 420,2013-07-19 19:31:00,
2013-07-19 15:36:00,92.9,70.0,29.97,East,93,2.9,5.8,47,0.00,,,0.00,WSDL version 420,2013-07-19 19:36:00,
2013-07-19 15:41:00,92.2,67.4,29.97,ESE,105,3.7,6.0,44,0.00,,,0.00,WSDL version 420,2013-07-19 19:41:00,
2013-07-19 15:46:00,92.5,67.6,29.97,ESE,118,3.4,6.0,44,0.00,,,0.00,WSDL version 420,2013-07-19 19:46:00,
2013-07-19 15:51:00,92.9,68.4,29.97,SW,225,2.9,5.6,45,0.00,,,0.00,WSDL version 420,2013-07-19 19:51:00,
2013-07-19 15:56:00,93.2,68.5,29.97,ESE,106,2.7,4.7,43,0.00,,,0.00,WSDL version 420,2013-07-19 19:56:00,
2013-07-19 16:01:00,92.6,67.3,29.97,SSE,154,3.5,5.4,44,0.00,,,0.00,WSDL version 420,2013-07-19 20:01:00,
2013-07-19 16:06:00,91.7,67.0,29.97,East,95,2.2,5.4,46,0.00,,,0.00,WSDL version 420,2013-07-19 20:06:00,
2013-07-19 16:11:00,91.8,67.9,29.97,SSE,164,2.3,4.3,46,0.00,,,0.00,WSDL version 420,2013-07-19 20:11:00,
2013-07-19 16:16:00,91.7,67.7,29.97,South,180,2.2,4.0,46,0.00,,,0.00,WSDL version 420,2013-07-19 20:16:00,
2013-07-19 16:21:00,91.8,67.7,29.97,East,101,3.5,5.8,45,0.00,,,0.00,WSDL version 420,2013-07-19 20:21:00,
2013-07-19 16:26:00,90.9,67.2,29.97,SE,143,2.8,5.8,47,0.00,,,0.00,WSDL version 420,2013-07-19 20:26:00,
2013-07-19 16:31:00,89.8,66.9,29.97,SE,131,2.9,5.4,48,0.00,,,0.00,WSDL version 420,2013-07-19 20:31:00,
2013-07-19 16:36:00,89.4,67.6,29.97,SSE,154,2.4,5.6,49,0.00,,,0.00,WSDL version 420,2013-07-19 20:36:00,
2013-07-19 16:46:00,89.3,69.2,29.97,SSW,203,3.9,8.1,52,0.00,,,0.00,WSDL version 420,2013-07-19 20:46:00,
2013-07-19 16:51:00,88.8,68.8,29.97,East,100,3.6,8.1,52,0.00,,,0.00,WSDL version 420,2013-07-19 20:51:00,
2013-07-19 16:56:00,88.5,69.2,29.97,NNW,332,2.3,5.6,54,0.00,,,0.00,WSDL version 420,2013-07-19 20:56:00,
2013-07-19 17:01:00,88.5,70.1,29.97,East,87,2.7,5.6,55,0.00,,,0.00,WSDL version 420,2013-07-19 21:01:00,
2013-07-19 17:06:00,88.5,70.3,29.97,NE,49,1.8,5.6,55,0.00,,,0.00,WSDL version 420,2013-07-19 21:06:00,
2013-07-19 17:11:00,88.5,70.8,29.97,SE,141,2.4,5.6,56,0.00,,,0.00,WSDL version 420,2013-07-19 21:11:00,
2013-07-19 17:16:00,88.4,70.4,29.97,SSE,151,3.0,4.7,56,0.00,,,0.00,WSDL version 420,2013-07-19 21:16:00,
2013-07-19 17:21:00,88.6,71.0,29.97,East,101,2.2,5.4,57,0.00,,,0.00,WSDL version 420,2013-07-19 21:21:00,
2013-07-19 17:26:00,88.9,71.0,29.97,East,96,3.2,6.0,55,0.00,,,0.00,WSDL version 420,2013-07-19 21:26:00,
2013-07-19 17:31:00,88.7,70.5,29.97,ESE,115,3.1,6.0,55,0.00,,,0.00,WSDL version 420,2013-07-19 21:31:00,
2013-07-19 17:41:00,88.3,70.0,29.97,East,96,2.5,11.0,55,0.00,,,0.00,WSDL version 420,2013-07-19 21:41:00,
2013-07-19 17:46:00,88.3,70.0,29.97,ENE,68,1.8,4.9,55,0.00,,,0.00,WSDL version 420,2013-07-19 21:46:00,
2013-07-19 17:51:00,88.1,70.4,29.97,SSW,212,2.7,6.3,56,0.00,,,0.00,WSDL version 420,2013-07-19 21:51:00,
2013-07-19 17:56:00,87.9,70.2,29.97,NE,34,1.6,6.3,56,0.00,,,0.00,WSDL version 420,2013-07-19 21:56:00,
2013-07-19 18:01:00,87.5,70.4,29.97,South,191,2.6,5.6,57,0.00,,,0.00,WSDL version 420,2013-07-19 22:01:00,
2013-07-19 18:06:00,87.3,70.2,29.97,South,177,2.6,5.6,57,0.00,,,0.00,WSDL version 420,2013-07-19 22:06:00,
2013-07-19 18:11:00,87.1,69.9,29.97,South,186,2.9,4.3,57,0.00,,,0.00,WSDL version 420,2013-07-19 22:11:00,
2013-07-19 18:16:00,86.9,69.8,29.97,SE,132,1.9,4.3,57,0.00,,,0.00,WSDL version 420,2013-07-19 22:16:00,
2013-07-19 18:21:00,86.8,70.1,29.97,SSE,161,2.5,4.3,58,0.00,,,0.00,WSDL version 420,2013-07-19 22:21:00,
2013-07-19 18:26:00,86.3,69.9,29.97,ESE,122,3.1,4.9,58,0.00,,,0.00,WSDL version 420,2013-07-19 22:26:00,
2013-07-19 18:31:00,86.0,69.6,30.00,SSW,203,1.9,6.0,58,0.00,,,0.00,WSDL version 420,2013-07-19 22:31:00,
2013-07-19 18:36:00,86.0,69.8,30.00,ESE,120,0.6,6.0,59,0.00,,,0.00,WSDL version 420,2013-07-19 22:36:00,
2013-07-19 18:41:00,85.8,70.3,30.00,NE,45,1.8,4.3,60,0.00,,,0.00,WSDL version 420,2013-07-19 22:41:00,
2013-07-19 18:46:00,85.5,70.1,29.97,NNE,23,0.7,4.3,60,0.00,,,0.00,WSDL version 420,2013-07-19 22:46:00,
2013-07-19 18:51:00,85.2,70.1,29.97,East,80,2.1,3.8,61,0.00,,,0.00,WSDL version 420,2013-07-19 22:51:00,
2013-07-19 18:56:00,85.0,70.0,29.97,ENE,58,1.8,3.6,61,0.00,,,0.00,WSDL version 420,2013-07-19 22:56:00,
2013-07-19 19:01:00,84.8,69.9,29.97,SW,235,1.2,3.6,61,0.00,,,0.00,WSDL version 420,2013-07-19 23:01:00,
2013-07-19 19:06:00,84.5,70.1,29.97,ENE,65,2.6,4.0,62,0.00,,,0.00,WSDL version 420,2013-07-19 23:06:00,
2013-07-19 19:11:00,84.3,70.3,29.97,South,191,2.5,5.8,63,0.00,,,0.00,WSDL version 420,2013-07-19 23:11:00,
2013-07-19 19:16:00,84.1,70.4,30.00,NE,41,2.0,5.8,64,0.00,,,0.00,WSDL version 420,2013-07-19 23:16:00,
2013-07-19 19:26:00,83.7,70.7,30.00,West,267,0.7,2.7,65,0.00,,,0.00,WSDL version 420,2013-07-19 23:26:00,
2013-07-19 19:31:00,83.5,70.5,29.94,NE,50,1.0,2.7,65,0.00,,,0.00,WSDL version 420,2013-07-19 23:31:00,
2013-07-19 19:36:00,83.3,70.4,29.94,ENE,71,0.9,4.0,65,0.00,,,0.00,WSDL version 420,2013-07-19 23:36:00,
2013-07-19 19:41:00,83.2,70.6,29.94,WNW,289,1.7,4.0,66,0.00,,,0.00,WSDL version 420,2013-07-19 23:41:00,
2013-07-19 19:46:00,83.1,70.5,29.97,East,83,1.3,2.9,66,0.00,,,0.00,WSDL version 420,2013-07-19 23:46:00,
2013-07-19 19:51:00,82.9,70.6,29.97,SE,131,1.2,4.7,67,0.00,,,0.00,WSDL version 420,2013-07-19 23:51:00,
2013-07-19 19:56:00,82.8,70.7,29.97,SE,131,1.3,4.7,67,0.00,,,0.00,WSDL version 420,2013-07-19 23:56:00,
2013-07-19 20:01:00,82.6,70.5,29.97,SSE,158,0.4,2.5,67,0.00,,,0.00,WSDL version 420,2013-07-20 00:01:00,
2013-07-19 20:06:00,82.6,70.5,29.97,North,360,0.4,2.9,67,0.00,,,0.00,WSDL version 420,2013-07-20 00:06:00,
2013-07-19 20:11:00,82.4,70.5,29.97,SSW,193,0.3,2.9,67,0.00,,,0.00,WSDL version 420,2013-07-20 00:11:00,
2013-07-19 20:16:00,82.2,70.6,29.97,ESE,113,0.0,2.2,68,0.00,,,0.00,WSDL version 420,2013-07-20 00:16:00,
2013-07-19 20:21:00,82.1,70.5,29.97,NE,45,0.0,0.0,68,0.00,,,0.00,WSDL version 420,2013-07-20 00:21:00,
2013-07-19 20:26:00,82.0,70.7,29.97,ESE,122,0.0,0.0,69,0.00,,,0.00,WSDL version 420,2013-07-20 00:26:00,
2013-07-19 20:31:00,81.9,70.7,29.94,WSW,245,0.3,3.4,69,0.00,,,0.00,WSDL version 420,2013-07-20 00:31:00,
2013-07-19 20:36:00,81.9,70.7,29.94,ESE,113,0.0,3.4,69,0.00,,,0.00,WSDL version 420,2013-07-20 00:36:00,
2013-07-19 20:41:00,81.8,70.9,29.94,SE,146,0.0,0.0,70,0.00,,,0.00,WSDL version 420,2013-07-20 00:41:00,
2013-07-19 20:46:00,81.7,70.9,29.97,East,100,0.0,0.0,70,0.00,,,0.00,WSDL version 420,2013-07-20 00:46:00,
2013-07-19 20:51:00,81.6,71.0,29.97,NE,51,0.0,0.0,71,0.00,,,0.00,WSDL version 420,2013-07-20 00:51:00,
2013-07-19 20:56:00,81.5,71.2,29.97,East,84,0.0,0.0,71,0.00,,,0.00,WSDL version 420,2013-07-20 00:56:00,
2013-07-19 21:01:00,81.5,71.3,30.00,SE,132,0.0,2.5,72,0.00,,,0.00,WSDL version 420,2013-07-20 01:01:00,
2013-07-19 21:06:00,81.4,71.5,30.00,SE,135,0.3,2.5,72,0.00,,,0.00,WSDL version 420,2013-07-20 01:06:00,
2013-07-19 21:11:00,81.3,71.4,30.00,East,100,0.0,2.0,72,0.00,,,0.00,WSDL version 420,2013-07-20 01:11:00,
2013-07-19 21:16:00,81.3,71.4,30.00,ENE,68,0.0,0.0,72,0.00,,,0.00,WSDL version 420,2013-07-20 01:16:00,
2013-07-19 21:21:00,81.1,71.7,30.00,ENE,68,0.0,0.0,73,0.00,,,0.00,WSDL version 420,2013-07-20 01:21:00,
2013-07-19 21:26:00,81.0,71.6,30.00,ENE,68,0.0,0.0,73,0.00,,,0.00,WSDL version 420,2013-07-20 01:26:00,
2013-07-19 21:31:00,81.0,71.6,30.03,ENE,68,0.0,0.0,74,0.00,,,0.00,WSDL version 420,2013-07-20 01:31:00,
2013-07-19 21:36:00,80.8,71.8,30.03,ENE,68,0.0,0.0,74,0.00,,,0.00,WSDL version 420,2013-07-20 01:36:00,
2013-07-19 21:41:00,80.8,71.7,30.03,ENE,68,0.0,0.0,74,0.00,,,0.00,WSDL version 420,2013-07-20 01:41:00,
2013-07-19 21:46:00,80.8,72.0,30.03,ENE,68,0.0,0.0,75,0.00,,,0.00,WSDL version 420,2013-07-20 01:46:00,
2013-07-19 21:51:00,80.6,71.9,30.03,ENE,68,0.0,0.0,75,0.00,,,0.00,WSDL version 420,2013-07-20 01:51:00,
2013-07-19 21:56:00,80.6,71.9,30.03,ENE,68,0.0,0.0,75,0.00,,,0.00,WSDL version 420,2013-07-20 01:56:00,
2013-07-19 22:01:00,80.5,72.1,30.03,ENE,68,0.0,0.0,76,0.00,,,0.00,WSDL version 420,2013-07-20 02:01:00,
2013-07-19 22:06:00,80.4,72.2,30.03,ENE,68,0.0,0.0,76,0.00,,,0.00,WSDL version 420,2013-07-20 02:06:00,
2013-07-19 22:11:00,80.4,72.2,30.03,ENE,68,0.0,0.0,76,0.00,,,0.00,WSDL version 420,2013-07-20 02:11:00,
2013-07-19 22:16:00,80.2,72.4,30.03,ENE,68,0.0,0.0,77,0.00,,,0.00,WSDL version 420,2013-07-20 02:16:00,
2013-07-19 22:21:00,80.2,72.3,30.03,ENE,68,0.0,0.0,77,0.00,,,0.00,WSDL version 420,2013-07-20 02:21:00,
2013-07-19 22:26:00,80.1,72.2,30.03,ENE,68,0.0,0.0,77,0.00,,,0.00,WSDL version 420,2013-07-20 02:26:00,
2013-07-19 22:31:00,80.1,72.5,30.03,ENE,68,0.0,0.0,78,0.00,,,0.00,WSDL version 420,2013-07-20 02:31:00,
2013-07-19 22:36:00,79.9,72.5,30.03,ENE,68,0.0,0.0,78,0.00,,,0.00,WSDL version 420,2013-07-20 02:36:00,
2013-07-19 22:41:00,79.9,72.4,30.03,ENE,68,0.0,0.0,78,0.00,,,0.00,WSDL version 420,2013-07-20 02:41:00,
2013-07-19 22:46:00,79.8,72.6,30.03,ENE,68,0.0,0.0,79,0.00,,,0.00,WSDL version 420,2013-07-20 02:46:00,
2013-07-19 22:51:00,79.7,72.6,30.03,ENE,68,0.0,0.0,79,0.00,,,0.00,WSDL version 420,2013-07-20 02:51:00,
2013-07-19 22:56:00,79.7,72.6,30.03,ENE,68,0.0,0.0,79,0.00,,,0.00,WSDL version 420,2013-07-20 02:56:00,
2013-07-19 23:01:00,79.7,72.6,30.03,ENE,68,0.0,0.0,79,0.00,,,0.00,WSDL version 420,2013-07-20 03:01:00,
2013-07-19 23:06:00,79.5,72.8,30.03,ENE,68,0.0,0.0,80,0.00,,,0.00,WSDL version 420,2013-07-20 03:06:00,
2013-07-19 23:11:00,79.5,72.8,30.03,ENE,68,0.0,0.0,80,0.00,,,0.00,WSDL version 420,2013-07-20 03:11:00,
2013-07-19 23:16:00,79.5,72.8,30.03,ENE,68,0.0,0.0,80,0.00,,,0.00,WSDL version 420,2013-07-20 03:16:00,
2013-07-19 23:21:00,79.5,72.8,30.03,ENE,68,0.0,0.0,80,0.00,,,0.00,WSDL version 420,2013-07-20 03:21:00,
2013-07-19 23:26:00,79.5,72.8,30.03,ENE,68,0.0,0.0,80,0.00,,,0.00,WSDL version 420,2013-07-20 03:26:00,
2013-07-19 23:31:00,79.6,72.9,30.03,ENE,68,0.0,0.0,80,0.00,,,0.00,WSDL version 420,2013-07-20 03:31:00,
2013-07-19 23:36:00,79.7,73.0,30.03,ENE,68,0.0,0.0,80,0.00,,,0.00,WSDL version 420,2013-07-20 03:36:00,
2013-07-19 23:41:00,79.6,72.9,30.03,ENE,68,0.0,0.0,80,0.00,,,0.00,WSDL version 420,2013-07-20 03:41:00,
2013-07-19 23:46:00,79.5,72.8,30.03,ENE,68,0.0,0.0,80,0.00,,,0.00,WSDL version 420,2013-07-20 03:46:00,
2013-07-19 23:51:00,79.5,72.8,30.03,SSE,158,0.0,0.0,80,0.00,,,0.00,WSDL version 420,2013-07-20 03:51:00,
2013-07-19 23:56:00,79.5,73.0,30.03,East,98,0.1,1.1,80,0.00,,,0.00,WSDL version 420,2013-07-20 03:56:00,